Decoded Metar for KEKX (ELIZABETH in KY, USA) (IATA:EKX) | Meteo·Mobile Aviation Weather
aviador You're here:

KEKX Decoded Metar

ELIZABETH in KY, USA
Report Time2019-03-23 20:35:00
UTC Time2019-03-23 20:35:47
Flight Rules vfr VFR
Wind250° at 03 kt
W.Decomp.*RWY 23: 2.8 kt HW 1.2 kt RCW
W.Rank250° ranks 15
Current wind is below 250° avg. (6.9)
Visibility9999 m
Phenomena:N/A
Clouds:N/A
Expected CloudBase > 7,600 ft AGL from Temp-Dew spread
CeilingNone
Temp14°C (ISA 0)
Dew Point-5°C (27% RH)
AAT10.3°C
QNH1025 hPa
Density Alt472 ft
Elevation755 ft
Report Wrong Elevation
Raw Report
KEKX 232035Z AUTO 25003KT 10SM CLR 14/M05 A3028 RMK AO2
T01361054=

Extra information for KEKX:More info

Airport Information Weather charts Add Link Nearby Venues Social comments

AIRNAV info for KEKX